Time;durP1;ratioP1;P1;durP2;ratioP2;P2;SDS_P1;SDS_P2;PMS_P1;PMS_P2;Temp;Humidity;BMP_temperature;BMP_pressure;BME280_temperature;BME280_humidity;BME280_pressure;Samples;Min_cycle;Max_cycle;Signal;HPM_P1;HPM_P2
2023/01/14 00:00:16;;;;;;;;;;;;;;;13.78;49.92;100458.78;4982386;27;126795;-67
2023/01/14 00:02:42;;;;;;;;;;;;;;;13.75;49.71;100460.16;4969443;27;108094;-66
2023/01/14 00:05:08;;;;;;;;;;;;;;;13.73;49.89;100456.97;4984284;27;98016;-68
2023/01/14 00:07:34;;;;;;;;;;;;;;;13.72;49.95;100461.56;4998335;27;124051;-66
2023/01/14 00:10:00;;;;;;;;;;;;;;;13.72;49.98;100455.34;4999373;27;127289;-66
2023/01/14 00:12:26;;;;;;;;;;;;;;;13.71;49.63;100459.94;4966357;27;98182;-66
2023/01/14 00:14:52;;;;;;;;;;;;;;;13.71;49.79;100464.56;5020478;27;99672;-67
2023/01/14 00:17:18;;;;;;;;;;;;;;;13.69;49.58;100467.56;4965851;27;122537;-67
2023/01/14 00:19:44;;;;;;;;;;;;;;;13.69;49.81;100462.13;4983761;27;129031;-67
2023/01/14 00:22:10;;;;;;;;;;;;;;;13.69;49.65;100464.03;4999304;27;128284;-67
2023/01/14 00:24:36;;;;;;;;;;;;;;;13.69;49.77;100470.25;4965908;27;115006;-67
2023/01/14 00:27:02;;;;;;;;;;;;;;;13.69;49.94;100472.97;4996522;27;122377;-67
2023/01/14 00:29:29;;;;;;;;;;;;;;;13.69;50.00;100475.69;4998679;27;126663;-66
2023/01/14 00:31:56;;;;;;;;;;;;;;;13.68;50.04;100482.19;4985422;27;98059;-67
2023/01/14 00:34:23;;;;;;;;;;;;;;;13.69;49.67;100483.00;4971800;27;112235;-67
2023/01/14 00:36:49;;;;;;;;;;;;;;;13.69;49.66;100481.09;4983822;27;98012;-67
2023/01/14 00:39:16;;;;;;;;;;;;;;;13.69;50.06;100483.81;4998834;27;115896;-67
2023/01/14 00:41:42;;;;;;;;;;;;;;;13.69;49.91;100481.09;4967335;27;99611;-68
2023/01/14 00:44:07;;;;;;;;;;;;;;;13.69;49.99;100486.53;4978964;27;128534;-67
2023/01/14 00:46:34;;;;;;;;;;;;;;;13.70;49.56;100490.03;4967528;27;99105;-66
2023/01/14 00:49:01;;;;;;;;;;;;;;;13.71;49.85;100491.63;4966032;27;119555;-67
2023/01/14 00:51:27;;;;;;;;;;;;;;;13.70;49.56;100492.75;4967241;27;100054;-67
2023/01/14 00:53:53;;;;;;;;;;;;;;;13.72;49.62;100501.41;4971275;27;99548;-67
2023/01/14 00:56:20;;;;;;;;;;;;;;;13.73;49.92;100503.00;4984647;27;99138;-66
2023/01/14 00:58:46;;;;;;;;;;;;;;;13.72;49.52;100506.81;4982659;27;98186;-67
2023/01/14 01:01:12;;;;;;;;;;;;;;;13.72;49.67;100498.69;4963905;27;127541;-67
2023/01/14 01:03:40;;;;;;;;;;;;;;;13.73;49.84;100505.72;4969063;27;98154;-67
2023/01/14 01:06:06;;;;;;;;;;;;;;;13.72;49.97;100499.50;4983294;27;98064;-67
2023/01/14 01:08:32;;;;;;;;;;;;;;;13.74;49.43;100507.31;4967351;27;122699;-67
2023/01/14 01:10:58;;;;;;;;;;;;;;;13.73;49.57;100506.53;4966363;27;99471;-66
2023/01/14 01:13:24;;;;;;;;;;;;;;;13.73;49.46;100511.94;4982803;27;98948;-67
2023/01/14 01:15:51;;;;;;;;;;;;;;;13.75;49.87;100519.75;4982548;27;122646;-67
2023/01/14 01:18:17;;;;;;;;;;;;;;;13.75;49.85;100514.34;4983199;27;119341;-68
2023/01/14 01:20:43;;;;;;;;;;;;;;;13.75;49.54;100517.88;4982215;27;128064;-67
2023/01/14 01:23:12;;;;;;;;;;;;;;;13.75;49.91;100522.47;4983081;27;110270;-67
2023/01/14 01:25:38;;;;;;;;;;;;;;;13.75;49.92;100519.75;4984734;27;98207;-67
2023/01/14 01:28:05;;;;;;;;;;;;;;;13.75;49.47;100519.75;4966206;27;130381;-69
2023/01/14 01:30:31;;;;;;;;;;;;;;;13.77;49.47;100525.72;4967851;27;99601;-67
2023/01/14 01:32:57;;;;;;;;;;;;;;;13.76;49.78;100526.81;4984123;27;117822;-66
2023/01/14 01:35:23;;;;;;;;;;;;;;;13.78;49.83;100535.44;5018302;27;123666;-66
2023/01/14 01:37:49;;;;;;;;;;;;;;;13.77;49.47;100533.84;4966905;27;118185;-67
2023/01/14 01:40:15;;;;;;;;;;;;;;;13.77;49.90;100531.13;4967410;27;97938;-67
2023/01/14 01:42:54;;;;;;;;;;;;;;;13.79;49.46;100536.25;4979988;27;125755;-67
2023/01/14 01:45:45;;;;;;;;;;;;;;;13.79;49.47;100541.66;4986736;27;98995;-66
2023/01/14 01:48:16;;;;;;;;;;;;;;;13.80;49.75;100546.03;4979544;27;111991;-67
2023/01/14 01:50:42;;;;;;;;;;;;;;;13.80;49.82;100541.41;4999961;27;98560;-68
2023/01/14 01:53:08;;;;;;;;;;;;;;;13.80;49.69;100544.13;4965361;27;129471;-67
2023/01/14 01:55:35;;;;;;;;;;;;;;;13.81;49.57;100548.44;4979500;27;98714;-68
2023/01/14 01:58:02;;;;;;;;;;;;;;;13.82;49.47;100541.09;4980724;27;98597;-67
2023/01/14 02:00:28;;;;;;;;;;;;;;;13.82;49.72;100547.31;4983941;27;98445;-67
2023/01/14 02:02:57;;;;;;;;;;;;;;;13.82;49.64;100546.53;4994546;27;127811;-68
2023/01/14 02:05:22;;;;;;;;;;;;;;;13.83;49.52;100553.56;4965573;27;100814;-67
2023/01/14 02:07:48;;;;;;;;;;;;;;;13.84;49.35;100557.91;4999563;27;99574;-67
2023/01/14 02:10:14;;;;;;;;;;;;;;;13.84;49.80;100556.00;4982623;27;117438;-67
2023/01/14 02:13:15;;;;;;;;;;;;;;;13.84;49.90;100553.28;4967197;27;127819;-67
2023/01/14 02:15:58;;;;;;;;;;;;;;;13.85;49.57;100556.78;5005110;27;99691;-67
2023/01/14 02:18:40;;;;;;;;;;;;;;;13.85;49.77;100554.09;5005713;27;98474;-66
2023/01/14 02:21:13;;;;;;;;;;;;;;;13.86;49.74;100552.97;4989586;27;117816;-66
2023/01/14 02:24:11;;;;;;;;;;;;;;;13.86;49.49;100561.91;4999574;27;97953;-66
2023/01/14 02:27:18;;;;;;;;;;;;;;;13.85;49.57;100565.72;4980767;27;98459;-66
2023/01/14 02:30:03;;;;;;;;;;;;;;;13.85;49.79;100563.03;4989839;27;104712;-67
2023/01/14 02:32:39;;;;;;;;;;;;;;;13.84;49.87;100569.53;5005020;27;124912;-66
2023/01/14 02:35:19;;;;;;;;;;;;;;;13.84;49.69;100561.41;4994628;27;98238;-67
2023/01/14 02:38:16;;;;;;;;;;;;;;;13.86;49.59;100571.94;4988615;27;114259;-67
2023/01/14 02:40:52;;;;;;;;;;;;;;;13.86;49.53;100577.38;4991443;27;99716;-67
2023/01/14 02:47:03;;;;;;;;;;;;;;;13.86;49.65;100585.50;5006018;27;98060;-68
2023/01/14 02:49:36;;;;;;;;;;;;;;;13.85;49.77;100592.81;4988364;27;98589;-67
2023/01/14 02:52:05;;;;;;;;;;;;;;;13.85;49.53;100581.19;4988312;27;109836;-68
2023/01/14 02:54:31;;;;;;;;;;;;;;;13.85;49.78;100584.69;4986545;27;98255;-67
2023/01/14 02:57:11;;;;;;;;;;;;;;;13.84;49.43;100588.50;5004857;27;127455;-67
2023/01/14 02:59:46;;;;;;;;;;;;;;;13.85;49.90;100592.81;4974178;27;119457;-67
2023/01/14 03:02:24;;;;;;;;;;;;;;;13.86;49.50;100593.63;4987736;27;98036;-67
2023/01/14 03:05:10;;;;;;;;;;;;;;;13.85;49.50;100594.72;5005692;27;98472;-67
2023/01/14 03:07:40;;;;;;;;;;;;;;;13.86;49.82;100599.03;5004028;27;114512;-67
2023/01/14 03:10:35;;;;;;;;;;;;;;;13.85;49.54;100600.16;5004238;27;97938;-67
2023/01/14 03:13:13;;;;;;;;;;;;;;;13.84;49.80;100596.63;5001957;27;121682;-66
2023/01/14 03:15:45;;;;;;;;;;;;;;;13.84;49.42;100593.94;5020086;27;98331;-66
2023/01/14 03:18:35;;;;;;;;;;;;;;;13.84;49.88;100607.47;4988495;27;99018;-66
2023/01/14 03:21:03;;;;;;;;;;;;;;;13.84;49.72;100607.47;5004850;27;98111;-66
2023/01/14 03:23:30;;;;;;;;;;;;;;;13.82;49.65;100606.94;4988148;27;98582;-67
2023/01/14 03:25:56;;;;;;;;;;;;;;;13.83;49.55;100622.09;5001564;27;102020;-66
2023/01/14 03:28:25;;;;;;;;;;;;;;;13.83;49.75;100611.25;4985036;27;128007;-67
2023/01/14 03:30:54;;;;;;;;;;;;;;;13.83;49.82;100615.88;4968661;27;110264;-66
2023/01/14 03:33:26;;;;;;;;;;;;;;;13.83;49.70;100619.38;4984185;27;120573;-67
2023/01/14 03:35:52;;;;;;;;;;;;;;;13.82;49.70;100620.47;4969063;27;98185;-66
2023/01/14 03:38:25;;;;;;;;;;;;;;;13.83;49.72;100616.66;4999193;27;127791;-66
2023/01/14 03:40:51;;;;;;;;;;;;;;;13.83;49.77;100624.00;5000902;27;111113;-67
2023/01/14 03:43:28;;;;;;;;;;;;;;;13.84;49.70;100622.94;4985574;27;98767;-66
2023/01/14 03:45:54;;;;;;;;;;;;;;;13.83;49.39;100624.81;4984538;27;97929;-66
2023/01/14 03:48:19;;;;;;;;;;;;;;;13.83;49.48;100632.94;4967571;27;128936;-67
2023/01/14 03:51:11;;;;;;;;;;;;;;;13.82;49.56;100635.94;5001799;27;122826;-66
2023/01/14 03:54:09;;;;;;;;;;;;;;;13.82;49.72;100638.66;4989205;27;98186;-67
2023/01/14 03:56:38;;;;;;;;;;;;;;;13.82;49.59;100638.66;5019766;27;98289;-67
2023/01/14 03:59:45;;;;;;;;;;;;;;;13.81;49.68;100645.97;5001371;27;98150;-67
2023/01/14 04:02:11;;;;;;;;;;;;;;;13.80;49.64;100636.22;5002089;27;99322;-66
2023/01/14 04:04:37;;;;;;;;;;;;;;;13.80;49.42;100647.06;4964883;27;130049;-67
2023/01/14 04:07:03;;;;;;;;;;;;;;;13.79;49.83;100645.44;4966654;27;128311;-66
2023/01/14 04:09:29;;;;;;;;;;;;;;;13.79;49.79;100634.59;4982071;27;127523;-67
2023/01/14 04:11:55;;;;;;;;;;;;;;;13.79;49.50;100637.28;4985216;27;123229;-67
2023/01/14 04:17:05;;;;;;;;;;;;;;;13.79;49.49;100633.78;4987995;27;98097;-66
2023/01/14 04:19:31;;;;;;;;;;;;;;;13.79;49.66;100640.00;4982369;27;127712;-66
2023/01/14 04:21:57;;;;;;;;;;;;;;;13.79;49.43;100645.44;4983402;27;123394;-66
2023/01/14 04:24:23;;;;;;;;;;;;;;;13.79;49.46;100641.91;4983865;27;127510;-66
2023/01/14 04:26:49;;;;;;;;;;;;;;;13.78;49.45;100645.72;4983814;27;105632;-66
2023/01/14 04:29:15;;;;;;;;;;;;;;;13.78;49.83;100649.22;4966873;27;124922;-67
2023/01/14 04:31:41;;;;;;;;;;;;;;;13.79;49.50;100650.03;4983945;27;123180;-66
2023/01/14 04:34:06;;;;;;;;;;;;;;;13.79;49.77;100652.75;4999251;27;127642;-66
2023/01/14 04:36:33;;;;;;;;;;;;;;;13.78;49.45;100649.22;4999283;27;128600;-67
2023/01/14 04:38:59;;;;;;;;;;;;;;;13.77;49.39;100650.34;5000204;27;97937;-67
2023/01/14 04:44:09;;;;;;;;;;;;;;;13.74;49.54;100651.69;4996760;27;98086;-67
2023/01/14 04:46:35;;;;;;;;;;;;;;;13.73;49.36;100652.00;4981835;27;127668;-66
2023/01/14 04:49:01;;;;;;;;;;;;;;;13.72;49.40;100656.59;4998721;27;115267;-67
2023/01/14 04:51:27;;;;;;;;;;;;;;;13.70;49.59;100661.50;5000677;27;123161;-68
2023/01/14 04:53:54;;;;;;;;;;;;;;;13.69;49.53;100657.16;4967912;27;127266;-67
2023/01/14 04:56:19;;;;;;;;;;;;;;;13.67;49.53;100662.03;4968802;27;97994;-67
2023/01/14 04:58:46;;;;;;;;;;;;;;;13.67;49.83;100663.94;4982695;27;129224;-67
2023/01/14 05:01:12;;;;;;;;;;;;;;;13.66;49.61;100662.34;4983436;27;98041;-67
2023/01/14 05:03:38;;;;;;;;;;;;;;;13.65;49.41;100660.72;4967666;27;127817;-67
2023/01/14 05:06:05;;;;;;;;;;;;;;;13.65;49.64;100658.84;4982307;27;115006;-68
2023/01/14 05:08:31;;;;;;;;;;;;;;;13.64;49.85;100668.06;4983324;27;97833;-67
2023/01/14 05:10:57;;;;;;;;;;;;;;;13.63;49.65;100666.41;4981118;27;123347;-66
2023/01/14 05:13:23;;;;;;;;;;;;;;;13.65;49.84;100664.25;4964733;27;122853;-67
2023/01/14 05:15:49;;;;;;;;;;;;;;;13.65;49.79;100666.16;4969112;27;127694;-66
2023/01/14 05:18:15;;;;;;;;;;;;;;;13.64;49.76;100672.66;4967956;27;97976;-65
2023/01/14 05:20:41;;;;;;;;;;;;;;;13.64;49.47;100673.47;4982864;27;98031;-65
2023/01/14 05:23:13;;;;;;;;;;;;;;;13.64;49.48;100672.66;4966343;27;99985;-67
2023/01/14 05:25:39;;;;;;;;;;;;;;;13.63;49.42;100674.53;4967566;27;98380;-64
2023/01/14 05:28:06;;;;;;;;;;;;;;;13.63;49.84;100668.31;4965466;27;129455;-65
2023/01/14 05:30:33;;;;;;;;;;;;;;;13.62;49.47;100667.50;4999083;27;117109;-67
2023/01/14 05:32:58;;;;;;;;;;;;;;;13.62;49.67;100672.94;4979769;27;119470;-67
2023/01/14 05:35:24;;;;;;;;;;;;;;;13.62;49.78;100678.34;4966695;27;123767;-65
2023/01/14 05:37:50;;;;;;;;;;;;;;;13.61;49.36;100679.44;4983396;27;129899;-66
2023/01/14 05:40:16;;;;;;;;;;;;;;;13.61;49.52;100675.94;4966852;27;98599;-66
2023/01/14 05:45:48;;;;;;;;;;;;;;;13.59;49.40;100680.81;5000461;27;99751;-66
2023/01/14 05:48:17;;;;;;;;;;;;;;;13.59;49.49;100680.81;4987145;27;99783;-66
2023/01/14 05:50:43;;;;;;;;;;;;;;;13.58;49.66;100682.72;4966299;27;99312;-67
2023/01/14 05:53:09;;;;;;;;;;;;;;;13.58;49.77;100681.91;4982544;27;98220;-66
2023/01/14 05:55:35;;;;;;;;;;;;;;;13.57;49.76;100683.81;4966674;27;100951;-66
2023/01/14 05:58:02;;;;;;;;;;;;;;;13.56;49.73;100687.63;4983831;27;98557;-66
2023/01/14 06:08:35;;;;;;;;;;;;;;;13.55;49.65;100682.47;4999209;27;98662;-66
2023/01/14 06:11:01;;;;;;;;;;;;;;;13.56;49.48;100697.63;4982990;27;122259;-66
2023/01/14 06:13:27;;;;;;;;;;;;;;;13.55;49.44;100690.59;4984473;27;98782;-66
2023/01/14 06:15:55;;;;;;;;;;;;;;;13.55;49.40;100699.50;4964442;27;129169;-66
2023/01/14 06:18:22;;;;;;;;;;;;;;;13.56;49.53;100705.75;4983531;27;98148;-66
2023/01/14 06:20:52;;;;;;;;;;;;;;;13.56;49.42;100708.44;4966959;27;98776;-66
2023/01/14 06:23:21;;;;;;;;;;;;;;;13.56;49.83;100714.69;5018997;27;98607;-67
2023/01/14 06:25:48;;;;;;;;;;;;;;;13.54;49.57;100716.88;4996729;27;99343;-67
2023/01/14 06:28:14;;;;;;;;;;;;;;;13.55;49.72;100714.97;4965708;27;101638;-66
2023/01/14 06:30:41;;;;;;;;;;;;;;;13.57;49.74;100720.91;4981212;27;99908;-67
2023/01/14 06:33:07;;;;;;;;;;;;;;;13.56;49.67;100713.88;4983305;27;98261;-67
2023/01/14 06:35:34;;;;;;;;;;;;;;;13.57;49.76;100723.63;4981827;27;98754;-68
2023/01/14 06:38:00;;;;;;;;;;;;;;;13.55;49.57;100718.47;4966827;27;99322;-68
2023/01/14 06:40:26;;;;;;;;;;;;;;;13.56;49.77;100724.69;4965909;27;98265;-65
2023/01/14 06:42:55;;;;;;;;;;;;;;;13.56;49.33;100725.53;4965339;27;128401;-67
2023/01/14 06:45:22;;;;;;;;;;;;;;;13.58;49.69;100725.25;4964797;27;122118;-66
2023/01/14 06:47:48;;;;;;;;;;;;;;;13.57;49.40;100735.28;4996217;27;98077;-66
2023/01/14 06:50:17;;;;;;;;;;;;;;;13.57;49.27;100724.44;4959962;27;124034;-66
2023/01/14 06:52:43;;;;;;;;;;;;;;;13.58;49.49;100731.47;4966320;27;100102;-66
2023/01/14 06:55:09;;;;;;;;;;;;;;;13.59;49.38;100730.38;4946334;27;100438;-66
2023/01/14 06:57:34;;;;;;;;;;;;;;;13.60;49.38;100728.50;4979162;27;123709;-66
2023/01/14 07:00:00;;;;;;;;;;;;;;;13.61;49.34;100716.56;4979166;27;122571;-67
2023/01/14 07:02:26;;;;;;;;;;;;;;;13.61;49.38;100725.50;4980473;27;127779;-66
2023/01/14 07:04:52;;;;;;;;;;;;;;;13.62;49.71;100721.69;4981481;27;127978;-66
2023/01/14 07:07:18;;;;;;;;;;;;;;;13.63;49.69;100723.28;4965204;27;129191;-67
2023/01/14 07:09:44;;;;;;;;;;;;;;;13.65;49.67;100720.31;4999154;27;98181;-68
2023/01/14 07:12:10;;;;;;;;;;;;;;;13.66;49.51;100714.63;4964201;27;98344;-66
2023/01/14 07:14:36;;;;;;;;;;;;;;;13.68;49.50;100706.22;4963102;27;127836;-66
2023/01/14 07:17:02;;;;;;;;;;;;;;;13.70;49.52;100726.50;4981360;27;128627;-67
2023/01/14 07:19:28;;;;;;;;;;;;;;;13.72;49.26;100724.34;4982356;27;98061;-67
2023/01/14 07:21:54;;;;;;;;;;;;;;;13.75;49.21;100722.94;4963186;27;128458;-67
2023/01/14 07:24:20;;;;;;;;;;;;;;;13.78;49.57;100727.81;4965283;27;129037;-67
2023/01/14 07:26:46;;;;;;;;;;;;;;;13.81;49.59;100721.03;4982582;27;127676;-67
2023/01/14 07:29:12;;;;;;;;;;;;;;;13.84;49.53;100729.41;4999313;27;121924;-66
2023/01/14 07:31:38;;;;;;;;;;;;;;;13.86;49.53;100731.81;4965908;27;100502;-67
2023/01/14 07:34:04;;;;;;;;;;;;;;;13.89;49.14;100731.25;4978428;27;128492;-67
2023/01/14 07:36:30;;;;;;;;;;;;;;;13.91;49.44;100734.47;4965022;27;100655;-67
2023/01/14 07:38:56;;;;;;;;;;;;;;;13.92;49.57;100725.28;4961718;27;124362;-67
2023/01/14 07:41:22;;;;;;;;;;;;;;;13.92;49.35;100730.69;4982048;27;126338;-67
2023/01/14 07:43:48;;;;;;;;;;;;;;;13.92;49.27;100717.94;4963754;27;100137;-67
2023/01/14 07:46:15;;;;;;;;;;;;;;;13.95;49.57;100725.53;4963887;27;115483;-69
2023/01/14 07:48:41;;;;;;;;;;;;;;;13.98;49.07;100724.94;4963296;27;117083;-67
2023/01/14 07:51:10;;;;;;;;;;;;;;;14.03;49.10;100718.69;4998368;27;99438;-67
2023/01/14 07:53:36;;;;;;;;;;;;;;;14.12;49.06;100729.72;4979848;27;98854;-66
2023/01/14 07:56:03;;;;;;;;;;;;;;;14.21;48.85;100730.72;4965866;27;98195;-67
2023/01/14 07:58:28;;;;;;;;;;;;;;;14.34;48.80;100712.97;4966130;27;98133;-67
2023/01/14 08:00:54;;;;;;;;;;;;;;;14.45;48.96;100709.84;4960834;27;130358;-67
2023/01/14 08:03:21;;;;;;;;;;;;;;;14.61;48.64;100707.03;4965502;27;119137;-66
2023/01/14 08:05:47;;;;;;;;;;;;;;;14.83;48.16;100704.59;4980535;27;98063;-66
2023/01/14 08:08:13;;;;;;;;;;;;;;;15.01;48.13;100697.56;4979924;27;98118;-67
2023/01/14 08:10:39;;;;;;;;;;;;;;;15.20;48.05;100705.75;4963255;27;129399;-67
2023/01/14 08:13:05;;;;;;;;;;;;;;;15.39;48.00;100714.72;4960677;27;129124;-66
2023/01/14 08:15:31;;;;;;;;;;;;;;;15.62;47.90;100717.66;4980723;27;115663;-68
2023/01/14 08:17:57;;;;;;;;;;;;;;;15.84;47.86;100711.66;4980989;27;99922;-68
2023/01/14 08:20:23;;;;;;;;;;;;;;;16.11;47.61;100710.91;4966157;27;99580;-67
2023/01/14 08:23:07;;;;;;;;;;;;;;;16.12;47.66;100709.81;4981378;27;99743;-67
2023/01/14 08:25:33;;;;;;;;;;;;;;;15.88;48.34;100715.41;4981520;27;99503;-67
2023/01/14 08:27:59;;;;;;;;;;;;;;;15.72;48.43;100712.13;4980416;27;126422;-66
2023/01/14 08:30:25;;;;;;;;;;;;;;;15.62;48.58;100718.47;4980212;27;128983;-67
2023/01/14 08:32:51;;;;;;;;;;;;;;;15.51;48.66;100716.19;4966024;27;98201;-66
2023/01/14 08:35:17;;;;;;;;;;;;;;;15.44;48.61;100711.13;4965397;27;106530;-66
2023/01/14 08:37:43;;;;;;;;;;;;;;;15.44;48.74;100705.69;4979639;27;121784;-67
2023/01/14 08:40:09;;;;;;;;;;;;;;;15.77;48.23;100700.34;4979349;27;98544;-67
2023/01/14 08:42:35;;;;;;;;;;;;;;;16.34;47.72;100698.28;4982770;27;122454;-67
2023/01/14 08:45:01;;;;;;;;;;;;;;;16.82;47.40;100698.75;4979487;27;127139;-67
2023/01/14 08:47:30;;;;;;;;;;;;;;;17.23;47.33;100692.44;4980360;27;107178;-68
2023/01/14 08:49:56;;;;;;;;;;;;;;;17.66;46.96;100690.06;4979425;27;129758;-68
2023/01/14 08:52:22;;;;;;;;;;;;;;;18.06;46.90;100690.19;4962579;27;107995;-67
2023/01/14 08:54:48;;;;;;;;;;;;;;;18.46;46.98;100678.53;4996442;27;128640;-67
2023/01/14 08:57:14;;;;;;;;;;;;;;;18.86;46.82;100682.03;4979349;27;122592;-68
2023/01/14 08:59:40;;;;;;;;;;;;;;;19.26;46.61;100679.25;4995875;27;128082;-67
2023/01/14 09:02:05;;;;;;;;;;;;;;;19.61;46.65;100685.53;4962008;27;127528;-68
2023/01/14 09:04:31;;;;;;;;;;;;;;;19.91;46.55;100672.78;4981610;27;99526;-68
2023/01/14 09:17:57;;;;;;;;;;;;;;;21.05;46.46;100701.34;4983309;27;98202;-67
2023/01/14 09:20:25;;;;;;;;;;;;;;;21.14;46.46;100704.00;4979673;27;99084;-67
2023/01/14 09:22:51;;;;;;;;;;;;;;;21.29;46.33;100700.69;4962778;27;120497;-67
2023/01/14 09:25:17;;;;;;;;;;;;;;;21.41;46.31;100702.72;4991194;27;128141;-67
2023/01/14 09:27:43;;;;;;;;;;;;;;;21.54;46.52;100698.94;5014802;27;121087;-67
2023/01/14 09:30:09;;;;;;;;;;;;;;;21.71;46.46;100706.19;4979567;27;127326;-66
2023/01/14 09:32:39;;;;;;;;;;;;;;;21.87;46.28;100706.38;4975981;27;123068;-68
2023/01/14 09:35:05;;;;;;;;;;;;;;;21.95;46.24;100702.75;4980630;27;99192;-67
2023/01/14 09:37:33;;;;;;;;;;;;;;;22.00;46.22;100703.31;4978308;27;107539;-67
2023/01/14 09:40:00;;;;;;;;;;;;;;;22.00;46.39;100697.81;4963754;27;98257;-68
2023/01/14 09:42:37;;;;;;;;;;;;;;;21.94;46.66;100699.19;4964136;27;98617;-67
2023/01/14 09:45:15;;;;;;;;;;;;;;;21.86;46.80;100693.81;4963712;27;98138;-67
2023/01/14 09:47:41;;;;;;;;;;;;;;;21.71;46.80;100685.06;4977820;27;99780;-66
2023/01/14 09:50:13;;;;;;;;;;;;;;;21.67;46.87;100688.81;4976548;27;99203;-66
2023/01/14 09:52:43;;;;;;;;;;;;;;;21.56;47.18;100691.16;4979520;27;98155;-67
2023/01/14 09:55:25;;;;;;;;;;;;;;;21.48;47.20;100683.81;5016766;27;98128;-66
2023/01/14 09:58:19;;;;;;;;;;;;;;;21.33;47.37;100669.56;4980046;27;116738;-66
2023/01/14 10:01:05;;;;;;;;;;;;;;;21.08;47.68;100670.53;4992282;27;98598;-67
2023/01/14 10:03:36;;;;;;;;;;;;;;;20.89;47.86;100670.19;4982795;27;107154;-67
2023/01/14 10:06:05;;;;;;;;;;;;;;;20.74;47.84;100658.66;4978116;27;98392;-66
2023/01/14 10:08:40;;;;;;;;;;;;;;;20.64;47.87;100650.81;4980209;27;118536;-67
2023/01/14 10:11:06;;;;;;;;;;;;;;;20.44;48.04;100640.59;4992986;27;99334;-66
2023/01/14 10:13:58;;;;;;;;;;;;;;;20.22;48.17;100638.91;4976825;27;98320;-66
2023/01/14 10:16:30;;;;;;;;;;;;;;;20.07;48.31;100635.56;4996891;27;98934;-66
2023/01/14 10:19:02;;;;;;;;;;;;;;;19.95;48.29;100631.91;4978275;27;117848;-68
2023/01/14 10:21:47;;;;;;;;;;;;;;;19.84;48.38;100628.72;4980020;27;104713;-67
2023/01/14 10:24:13;;;;;;;;;;;;;;;19.76;48.19;100627.59;4995407;27;98195;-65
2023/01/14 10:26:39;;;;;;;;;;;;;;;19.72;48.38;100626.66;4964485;27;99679;-65
2023/01/14 10:29:12;;;;;;;;;;;;;;;19.70;48.23;100617.19;4961809;27;120936;-68
2023/01/14 10:31:38;;;;;;;;;;;;;;;19.68;48.15;100619.41;4995517;27;98432;-66
2023/01/14 10:34:04;;;;;;;;;;;;;;;19.64;48.10;100613.00;4961327;27;128178;-66
2023/01/14 10:36:31;;;;;;;;;;;;;;;19.55;48.28;100608.31;4980417;27;124820;-66
2023/01/14 10:38:57;;;;;;;;;;;;;;;19.51;48.22;100601.09;4985071;27;97909;-66
2023/01/14 10:44:33;;;;;;;;;;;;;;;19.47;48.18;100590.00;4986853;27;98200;-65
2023/01/14 10:47:11;;;;;;;;;;;;;;;19.48;48.03;100593.53;4991018;27;99532;-66
2023/01/14 10:49:55;;;;;;;;;;;;;;;19.42;48.04;100581.97;4982032;27;98661;-65
2023/01/14 10:52:27;;;;;;;;;;;;;;;19.42;48.02;100586.66;4984256;27;98349;-66
2023/01/14 10:54:59;;;;;;;;;;;;;;;19.39;48.13;100574.41;4999185;27;98356;-67
2023/01/14 10:57:25;;;;;;;;;;;;;;;19.38;48.08;100573.63;5017743;27;98067;-65
2023/01/14 10:59:54;;;;;;;;;;;;;;;19.38;48.05;100570.09;4964815;27;98316;-65
2023/01/14 11:02:39;;;;;;;;;;;;;;;19.40;47.89;100558.81;4962887;27;128166;-66
2023/01/14 11:05:07;;;;;;;;;;;;;;;19.38;48.03;100562.69;4998675;27;98144;-67
2023/01/14 11:07:35;;;;;;;;;;;;;;;19.38;47.75;100545.50;4981116;27;97942;-67
2023/01/14 11:10:10;;;;;;;;;;;;;;;19.39;47.95;100544.38;4981049;27;98096;-66
2023/01/14 11:12:36;;;;;;;;;;;;;;;19.40;47.76;100535.03;4998053;27;98103;-66
2023/01/14 11:15:02;;;;;;;;;;;;;;;19.40;47.92;100534.22;4967783;27;128918;-65
2023/01/14 11:17:29;;;;;;;;;;;;;;;19.36;47.78;100532.13;4981448;27;111507;-65
2023/01/14 11:20:23;;;;;;;;;;;;;;;19.34;47.86;100533.59;4982529;27;98251;-67
2023/01/14 11:23:02;;;;;;;;;;;;;;;19.30;48.00;100533.44;4983312;27;98574;-67
2023/01/14 11:25:28;;;;;;;;;;;;;;;19.26;47.85;100535.22;4980648;27;98834;-65
2023/01/14 11:27:54;;;;;;;;;;;;;;;19.24;47.95;100515.59;4981679;27;114707;-67
2023/01/14 11:30:21;;;;;;;;;;;;;;;19.22;47.86;100522.53;4979292;27;123150;-65
2023/01/14 11:32:50;;;;;;;;;;;;;;;19.17;47.96;100509.81;4981247;27;116167;-67
2023/01/14 11:35:25;;;;;;;;;;;;;;;19.15;47.99;100514.03;4982848;27;97952;-65
2023/01/14 11:37:53;;;;;;;;;;;;;;;19.11;48.24;100508.41;4962897;27;125787;-65
2023/01/14 11:40:23;;;;;;;;;;;;;;;19.07;47.94;100507.44;4984276;27;98028;-67
2023/01/14 11:42:50;;;;;;;;;;;;;;;19.04;47.92;100506.16;4999323;27;98657;-67
2023/01/14 11:45:21;;;;;;;;;;;;;;;18.99;47.99;100491.88;4996395;27;99748;-67
2023/01/14 11:47:52;;;;;;;;;;;;;;;18.95;48.08;100485.44;4966931;27;98076;-66
2023/01/14 11:50:26;;;;;;;;;;;;;;;18.91;48.09;100479.03;4984177;27;98241;-67
2023/01/14 11:53:01;;;;;;;;;;;;;;;18.87;48.18;100473.41;4979841;27;98148;-67
2023/01/14 11:55:29;;;;;;;;;;;;;;;18.83;48.25;100469.72;5015764;27;98295;-65
2023/01/14 11:58:14;;;;;;;;;;;;;;;18.80;48.20;100459.44;4981184;27;99210;-65
2023/01/14 12:00:44;;;;;;;;;;;;;;;18.76;47.98;100453.00;5001395;27;98185;-67
2023/01/14 12:03:17;;;;;;;;;;;;;;;18.72;48.20;100449.31;4980049;27;109892;-65
2023/01/14 12:05:43;;;;;;;;;;;;;;;18.68;48.22;100443.69;4982284;27;125410;-67
2023/01/14 12:08:14;;;;;;;;;;;;;;;18.63;48.15;100444.66;4981055;27;122081;-65
2023/01/14 12:10:44;;;;;;;;;;;;;;;18.60;48.15;100441.75;4981098;27;98181;-65
2023/01/14 12:18:58;;;;;;;;;;;;;;;18.50;48.27;100425.69;4984103;27;98113;-67
2023/01/14 12:22:15;;;;;;;;;;;;;;;18.46;48.25;100424.72;4982869;27;98253;-65
2023/01/14 12:25:03;;;;;;;;;;;;;;;18.38;48.35;100402.56;5016141;27;99393;-65
2023/01/14 12:27:59;;;;;;;;;;;;;;;18.34;48.28;100398.06;4981783;27;100093;-67
2023/01/14 12:30:40;;;;;;;;;;;;;;;18.26;48.29;100390.69;4996955;27;98024;-67
2023/01/14 12:33:09;;;;;;;;;;;;;;;18.19;48.32;100385.72;4995500;27;98943;-67
2023/01/14 12:35:45;;;;;;;;;;;;;;;18.12;48.38;100386.22;5014367;27;98321;-65
2023/01/14 12:47:13;;;;;;;;;;;;;;;18.08;48.61;100344.34;4930343;27;98208;-66
2023/01/14 12:49:39;;;;;;;;;;;;;;;18.12;48.66;100347.22;4981637;27;128161;-67
2023/01/14 12:52:05;;;;;;;;;;;;;;;18.17;48.50;100346.25;4964458;27;98285;-69
2023/01/14 12:54:34;;;;;;;;;;;;;;;18.19;48.43;100344.00;4961921;27;98021;-68
2023/01/14 12:57:00;;;;;;;;;;;;;;;18.20;48.49;100329.25;4972531;27;100959;-68
2023/01/14 12:59:30;;;;;;;;;;;;;;;18.17;48.61;100322.50;4964883;27;99283;-70
2023/01/14 13:02:05;;;;;;;;;;;;;;;18.16;48.50;100318.19;4979398;27;98633;-68
2023/01/14 13:04:45;;;;;;;;;;;;;;;18.13;48.50;100316.88;4980556;27;98322;-68
2023/01/14 13:07:26;;;;;;;;;;;;;;;18.12;48.45;100298.13;4964525;27;100535;-69
2023/01/14 13:09:58;;;;;;;;;;;;;;;18.09;48.61;100294.09;4980174;27;98360;-68
2023/01/14 13:12:30;;;;;;;;;;;;;;;18.06;48.69;100275.66;4967405;27;98785;-70
2023/01/14 13:14:58;;;;;;;;;;;;;;;18.03;48.71;100279.03;4974532;27;98168;-67
2023/01/14 13:17:34;;;;;;;;;;;;;;;18.00;48.57;100276.97;4076040;27;10000942;-68
2023/01/14 13:20:03;;;;;;;;;;;;;;;17.95;48.77;100252.56;4980148;27;98172;-68
2023/01/14 13:22:50;;;;;;;;;;;;;;;17.91;48.72;100244.22;4996107;27;98144;-70
2023/01/14 13:25:31;;;;;;;;;;;;;;;17.85;48.72;100226.44;4958000;27;98141;-68
2023/01/14 13:27:58;;;;;;;;;;;;;;;17.80;48.81;100218.44;4957880;27;98273;-68
2023/01/14 13:30:24;;;;;;;;;;;;;;;17.76;48.70;100219.38;4958277;27;99674;-67
2023/01/14 13:33:00;;;;;;;;;;;;;;;17.71;48.85;100217.59;4992747;27;98306;-68